Time;durP1;ratioP1;P1;durP2;ratioP2;P2;SDS_P1;SDS_P2;PMS_P1;PMS_P2;Temp;Humidity;BMP_temperature;BMP_pressure;BME280_temperature;BME280_humidity;BME280_pressure;Samples;Min_cycle;Max_cycle;Signal;HPM_P1;HPM_P2
2023/04/01 00:00:19;;;;;;;19.50;11.05;;;11.60;99.90;;;;;;5019399;28;20230;-71
2023/04/01 00:03:09;;;;;;;18.02;11.68;;;11.60;99.90;;;;;;5015491;28;20359;-72
2023/04/01 00:05:59;;;;;;;19.80;11.95;;;11.50;99.90;;;;;;5018618;28;20225;-72
2023/04/01 00:08:49;;;;;;;18.08;11.50;;;11.60;99.90;;;;;;5015201;28;20221;-71
2023/04/01 00:11:38;;;;;;;18.95;12.20;;;11.60;99.90;;;;;;5016313;28;20225;-72
2023/04/01 00:14:28;;;;;;;15.73;11.15;;;11.70;99.90;;;;;;5027947;28;20226;-72
2023/04/01 00:17:17;;;;;;;16.70;11.55;;;11.60;99.90;;;;;;5019637;28;20686;-71
2023/04/01 00:20:09;;;;;;;18.73;11.90;;;11.60;99.90;;;;;;5017049;28;20312;-71
2023/04/01 00:22:58;;;;;;;18.67;11.50;;;11.60;99.90;;;;;;5020516;28;20980;-71
2023/04/01 00:25:49;;;;;;;19.20;11.93;;;11.70;99.90;;;;;;5017805;28;20225;-71
2023/04/01 00:28:38;;;;;;;15.73;12.05;;;11.70;99.90;;;;;;5019449;28;20367;-74
2023/04/01 00:31:27;;;;;;;19.13;12.30;;;11.70;99.90;;;;;;5017036;28;20220;-72
2023/04/01 00:34:16;;;;;;;16.55;11.75;;;11.70;99.90;;;;;;5027001;28;20229;-73
2023/04/01 00:37:05;;;;;;;16.08;12.45;;;11.70;99.90;;;;;;5021037;28;20224;-72
2023/04/01 00:39:56;;;;;;;16.70;12.60;;;11.70;99.90;;;;;;5021479;28;20278;-73
2023/04/01 00:42:46;;;;;;;18.83;12.73;;;11.70;99.90;;;;;;5025906;28;21951;-73
2023/04/01 00:45:37;;;;;;;16.90;12.82;;;11.70;99.90;;;;;;5027075;28;20301;-72
2023/04/01 00:48:31;;;;;;;18.45;12.30;;;11.80;99.90;;;;;;5022510;28;20229;-70
2023/04/01 00:51:24;;;;;;;19.90;13.48;;;11.80;99.90;;;;;;5030961;28;20228;-69
2023/04/01 00:54:15;;;;;;;15.00;12.60;;;11.80;99.90;;;;;;5007433;28;20238;-69
2023/04/01 00:57:08;;;;;;;18.58;12.90;;;11.60;99.90;;;;;;5015912;28;20226;-69
2023/04/01 00:59:59;;;;;;;17.35;12.30;;;11.60;99.90;;;;;;5023415;28;20218;-70
2023/04/01 01:02:51;;;;;;;16.98;12.48;;;11.70;99.90;;;;;;5015737;28;20411;-70
2023/04/01 01:05:59;;;;;;;17.05;12.48;;;11.60;99.90;;;;;;5019959;28;20715;-71
2023/04/01 01:09:07;;;;;;;20.58;12.68;;;11.40;99.90;;;;;;5036834;28;20239;-70
2023/04/01 01:12:03;;;;;;;16.92;13.15;;;11.50;99.90;;;;;;5032041;28;20240;-72
2023/04/01 01:15:02;;;;;;;18.48;12.77;;;11.40;99.90;;;;;;5029990;28;20220;-72
2023/04/01 01:17:59;;;;;;;17.10;13.27;;;11.50;99.90;;;;;;5026243;28;20261;-73
2023/04/01 01:21:04;;;;;;;20.65;14.70;;;11.40;99.90;;;;;;5024024;28;20237;-73
2023/04/01 01:24:20;;;;;;;18.83;14.32;;;11.50;99.90;;;;;;5025795;28;20340;-73
2023/04/01 01:27:11;;;;;;;19.58;14.32;;;11.50;99.90;;;;;;5027284;28;20237;-74
2023/04/01 01:30:27;;;;;;;18.45;14.77;;;11.50;99.90;;;;;;5040202;28;20284;-75
2023/04/01 01:33:54;;;;;;;22.33;15.43;;;11.50;99.90;;;;;;5025591;28;20354;-73
2023/04/01 01:36:53;;;;;;;20.20;14.48;;;11.50;99.90;;;;;;5023510;28;20270;-75
2023/04/01 01:39:45;;;;;;;23.58;16.55;;;11.40;99.90;;;;;;5008443;28;20217;-74
2023/04/01 01:42:38;;;;;;;21.33;15.25;;;11.40;99.90;;;;;;5007118;28;20232;-71
2023/04/01 01:45:28;;;;;;;23.05;15.82;;;11.40;99.90;;;;;;5038859;28;20218;-71
2023/04/01 01:48:22;;;;;;;22.23;15.68;;;11.40;99.90;;;;;;5027748;28;20229;-72
2023/04/01 01:51:11;;;;;;;22.05;15.85;;;11.40;99.90;;;;;;5014261;28;20236;-71
2023/04/01 01:54:01;;;;;;;21.10;15.00;;;11.40;99.90;;;;;;5014224;28;20244;-71
2023/04/01 01:57:02;;;;;;;22.00;14.35;;;11.30;99.90;;;;;;5014091;28;20371;-71
2023/04/01 01:59:57;;;;;;;19.67;14.10;;;11.40;99.90;;;;;;5023719;28;20243;-71
2023/04/01 02:02:50;;;;;;;20.75;14.88;;;11.40;99.90;;;;;;5009071;28;20218;-72
2023/04/01 02:05:41;;;;;;;24.15;13.85;;;11.40;99.90;;;;;;5018069;28;20864;-73
2023/04/01 02:08:36;;;;;;;18.63;13.38;;;11.30;99.90;;;;;;5024148;28;20595;-73
2023/04/01 02:11:30;;;;;;;23.33;14.60;;;11.30;99.90;;;;;;5009174;28;20287;-72
2023/04/01 02:14:22;;;;;;;25.95;14.93;;;11.30;99.90;;;;;;5006046;28;20363;-72
2023/04/01 02:17:14;;;;;;;20.60;13.57;;;11.40;99.90;;;;;;5010155;28;20495;-70
2023/04/01 02:20:08;;;;;;;24.70;14.25;;;11.40;99.90;;;;;;5009136;28;20308;-72
2023/04/01 02:22:59;;;;;;;22.00;14.48;;;11.40;99.90;;;;;;5029335;28;21030;-73
2023/04/01 02:25:48;;;;;;;20.27;14.75;;;11.40;99.90;;;;;;5017816;28;20216;-72
2023/04/01 02:28:40;;;;;;;19.67;15.02;;;11.20;99.90;;;;;;5011289;28;20299;-72
2023/04/01 02:31:29;;;;;;;21.40;15.88;;;11.30;99.90;;;;;;5040302;28;20275;-72
2023/04/01 02:34:19;;;;;;;23.30;14.15;;;11.30;99.90;;;;;;5036694;28;20236;-72
2023/04/01 02:37:08;;;;;;;22.63;15.80;;;11.30;99.90;;;;;;5016328;28;20229;-71
2023/04/01 02:40:01;;;;;;;25.17;15.23;;;11.30;99.90;;;;;;5023256;28;20817;-72
2023/04/01 02:42:50;;;;;;;22.27;15.20;;;11.40;99.90;;;;;;5036888;28;20589;-71
2023/04/01 02:45:40;;;;;;;22.42;15.82;;;11.50;99.90;;;;;;5024839;28;20228;-71
2023/04/01 02:48:29;;;;;;;22.75;16.58;;;11.40;99.90;;;;;;5036876;28;20735;-71
2023/04/01 02:51:21;;;;;;;23.40;16.33;;;11.40;99.90;;;;;;5048989;28;20217;-71
2023/04/01 02:54:10;;;;;;;22.65;16.70;;;11.30;99.90;;;;;;5017940;28;20274;-71
2023/04/01 02:56:59;;;;;;;27.08;17.60;;;11.20;99.90;;;;;;5033360;28;20309;-71
2023/04/01 02:59:48;;;;;;;27.13;17.55;;;11.30;99.90;;;;;;5016577;28;20244;-72
2023/04/01 03:02:39;;;;;;;22.77;18.25;;;11.40;99.90;;;;;;5036844;28;20314;-71
2023/04/01 03:05:28;;;;;;;24.60;18.02;;;11.30;99.90;;;;;;5018615;28;20308;-71
2023/04/01 03:08:17;;;;;;;23.98;18.52;;;11.20;99.90;;;;;;5027273;28;20225;-72
2023/04/01 03:11:06;;;;;;;23.65;18.40;;;11.10;99.90;;;;;;5030710;28;20313;-72
2023/04/01 03:14:01;;;;;;;26.75;18.58;;;11.10;99.90;;;;;;5019243;28;20225;-71
2023/04/01 03:16:49;;;;;;;25.90;20.00;;;11.20;99.90;;;;;;5017001;28;20267;-72
2023/04/01 03:19:43;;;;;;;25.15;19.65;;;11.20;99.90;;;;;;5011843;28;20234;-71
2023/04/01 03:22:32;;;;;;;30.42;19.55;;;11.30;99.90;;;;;;5021368;28;20234;-73
2023/04/01 03:25:21;;;;;;;27.38;20.75;;;11.40;99.90;;;;;;5016481;28;20252;-72
2023/04/01 03:28:12;;;;;;;28.70;22.17;;;11.30;99.90;;;;;;5008804;28;20227;-71
2023/04/01 03:31:01;;;;;;;28.38;20.55;;;11.40;99.90;;;;;;4998438;28;20223;-72
2023/04/01 03:33:54;;;;;;;28.90;20.38;;;11.40;99.90;;;;;;5005487;28;20301;-71
2023/04/01 03:36:45;;;;;;;24.73;20.23;;;11.30;99.90;;;;;;5005479;28;20319;-69
2023/04/01 03:39:34;;;;;;;24.27;18.58;;;11.40;99.90;;;;;;5009445;28;20769;-70
2023/04/01 03:42:23;;;;;;;26.52;18.90;;;11.30;99.90;;;;;;4994172;28;20219;-70
2023/04/01 03:45:12;;;;;;;21.58;17.98;;;11.30;99.90;;;;;;5003082;28;20290;-70
2023/04/01 03:48:02;;;;;;;22.65;18.55;;;11.30;99.90;;;;;;4996981;28;20364;-70
2023/04/01 03:50:50;;;;;;;24.30;18.20;;;11.30;99.90;;;;;;5000922;28;20643;-72
2023/04/01 03:53:42;;;;;;;24.30;18.23;;;11.30;99.90;;;;;;5024285;28;20261;-70
2023/04/01 03:56:31;;;;;;;25.75;18.48;;;11.20;99.90;;;;;;5032159;28;20228;-72
2023/04/01 03:59:20;;;;;;;24.20;18.83;;;11.30;99.90;;;;;;5022833;28;20254;-71
2023/04/01 04:02:09;;;;;;;24.67;18.30;;;11.40;99.90;;;;;;5014790;28;20233;-70
2023/04/01 04:04:58;;;;;;;22.63;17.65;;;11.50;99.90;;;;;;5021804;28;20478;-71
2023/04/01 04:07:49;;;;;;;25.77;18.25;;;11.40;99.90;;;;;;5014433;28;20233;-70
2023/04/01 04:10:41;;;;;;;23.55;18.63;;;11.40;99.90;;;;;;5018412;28;20557;-69
2023/04/01 04:13:29;;;;;;;21.90;17.83;;;11.30;99.90;;;;;;5019881;28;20301;-70
2023/04/01 04:16:24;;;;;;;21.33;17.73;;;11.40;99.90;;;;;;5018950;28;20238;-70
2023/04/01 04:19:20;;;;;;;26.20;18.50;;;11.20;99.90;;;;;;5021314;28;20220;-70
2023/04/01 04:22:09;;;;;;;25.17;17.80;;;11.40;99.90;;;;;;5018037;28;20232;-69
2023/04/01 04:24:58;;;;;;;20.77;17.25;;;11.30;99.90;;;;;;5033755;28;20225;-69
2023/04/01 04:27:49;;;;;;;21.85;16.25;;;11.30;99.90;;;;;;5000531;28;20218;-69
2023/04/01 04:30:38;;;;;;;22.27;16.67;;;11.30;99.90;;;;;;5003701;28;21061;-69
2023/04/01 04:33:27;;;;;;;19.95;15.45;;;11.40;99.90;;;;;;5023214;28;20222;-71
2023/04/01 04:36:17;;;;;;;22.10;16.10;;;11.30;99.90;;;;;;5017437;28;20705;-69
2023/04/01 04:39:06;;;;;;;21.17;15.52;;;11.30;99.90;;;;;;5018935;28;22485;-70
2023/04/01 04:41:57;;;;;;;18.95;15.55;;;11.30;99.90;;;;;;5019008;28;21006;-70
2023/04/01 04:44:48;;;;;;;19.63;15.20;;;11.40;99.90;;;;;;5031021;28;20309;-69
2023/04/01 04:47:37;;;;;;;19.92;14.98;;;11.40;99.90;;;;;;5029223;28;20222;-69
2023/04/01 04:50:26;;;;;;;17.92;14.50;;;11.50;99.90;;;;;;5023064;28;20214;-69
2023/04/01 04:53:16;;;;;;;16.42;12.77;;;11.40;99.90;;;;;;5019195;28;20240;-69
2023/04/01 04:56:09;;;;;;;18.27;13.68;;;11.40;99.90;;;;;;5018135;28;20221;-69
2023/04/01 04:59:07;;;;;;;17.10;13.18;;;11.40;99.90;;;;;;5021768;28;20237;-69
2023/04/01 05:02:07;;;;;;;20.65;13.13;;;11.40;99.90;;;;;;5020386;28;20320;-70
2023/04/01 05:04:56;;;;;;;14.90;12.60;;;11.30;99.90;;;;;;5007757;28;20296;-69
2023/04/01 05:07:45;;;;;;;15.18;12.30;;;11.40;99.90;;;;;;5013696;28;20579;-70
2023/04/01 05:10:34;;;;;;;16.27;12.50;;;11.50;99.90;;;;;;5017451;28;20243;-71
2023/04/01 05:13:24;;;;;;;17.42;12.30;;;11.50;99.90;;;;;;5025762;28;20222;-70
2023/04/01 05:16:14;;;;;;;14.85;11.77;;;11.50;99.90;;;;;;5006777;28;20226;-70
2023/04/01 05:19:05;;;;;;;15.52;11.68;;;11.50;99.90;;;;;;5011107;28;20321;-71
2023/04/01 05:21:54;;;;;;;14.10;11.57;;;11.50;99.90;;;;;;5005284;28;20707;-73
2023/04/01 05:24:43;;;;;;;12.45;11.07;;;11.50;99.90;;;;;;5013425;28;20242;-71
2023/04/01 05:27:36;;;;;;;14.88;11.73;;;11.50;99.90;;;;;;5007279;28;20225;-71
2023/04/01 05:30:25;;;;;;;17.25;14.43;;;11.50;99.90;;;;;;5025834;28;20318;-72
2023/04/01 05:33:43;;;;;;;13.68;11.20;;;11.60;99.90;;;;;;5018087;28;20229;-72
2023/04/01 05:36:35;;;;;;;13.98;11.48;;;11.50;99.90;;;;;;5024447;28;20735;-68
2023/04/01 05:39:24;;;;;;;12.05;10.43;;;11.60;99.90;;;;;;5021825;28;20680;-70
2023/04/01 05:42:15;;;;;;;12.18;10.88;;;11.50;99.90;;;;;;5009527;28;20224;-69
2023/04/01 05:45:05;;;;;;;14.32;11.00;;;11.50;99.90;;;;;;5002758;28;20295;-68
2023/04/01 05:48:29;;;;;;;13.57;10.73;;;11.50;99.90;;;;;;4991762;28;20347;-68
2023/04/01 05:51:18;;;;;;;11.52;10.40;;;11.50;99.90;;;;;;5020727;28;20225;-69
2023/04/01 05:54:09;;;;;;;14.68;11.35;;;11.50;99.90;;;;;;5019329;28;20237;-71
2023/04/01 05:56:58;;;;;;;14.63;11.27;;;11.60;99.90;;;;;;5037885;28;20213;-72
2023/04/01 05:59:48;;;;;;;13.50;11.15;;;11.70;99.90;;;;;;5030553;28;20311;-71
2023/04/01 06:02:37;;;;;;;13.35;11.70;;;11.60;99.90;;;;;;5022148;28;20271;-71
2023/04/01 06:05:30;;;;;;;14.15;10.90;;;11.90;99.90;;;;;;5023741;28;20221;-71
2023/04/01 06:08:20;;;;;;;14.20;11.05;;;11.90;99.90;;;;;;5025231;28;20745;-74
2023/04/01 06:11:23;;;;;;;14.65;10.80;;;11.90;99.90;;;;;;5013043;28;20230;-72
2023/04/01 06:14:24;;;;;;;12.55;10.93;;;11.90;99.90;;;;;;5025757;28;20232;-73
2023/04/01 06:17:31;;;;;;;13.45;11.00;;;11.90;99.90;;;;;;5030868;28;20221;-73
2023/04/01 06:20:31;;;;;;;16.08;11.93;;;11.90;99.90;;;;;;5020697;28;20275;-71
2023/04/01 06:23:34;;;;;;;14.95;11.85;;;12.00;99.90;;;;;;5020544;28;20236;-72
2023/04/01 06:26:36;;;;;;;18.25;12.60;;;12.00;99.90;;;;;;5038977;28;20869;-72
2023/04/01 06:29:50;;;;;;;15.73;12.57;;;12.00;99.90;;;;;;5015883;28;20230;-71
2023/04/01 06:33:01;;;;;;;16.73;12.65;;;12.10;99.90;;;;;;5011503;28;20226;-73
2023/04/01 06:36:09;;;;;;;19.20;14.38;;;12.10;99.90;;;;;;5024014;28;20221;-71
2023/04/01 06:39:10;;;;;;;18.02;14.77;;;12.00;99.90;;;;;;5029536;28;20251;-70
2023/04/01 06:42:42;;;;;;;18.33;16.00;;;12.00;99.90;;;;;;5032115;28;20220;-71
2023/04/01 06:45:56;;;;;;;20.85;16.05;;;11.70;99.90;;;;;;4971409;28;21123;-73
2023/04/01 06:49:18;;;;;;;20.52;17.02;;;11.60;99.90;;;;;;4966728;28;20223;-77
2023/04/01 06:52:30;;;;;;;20.15;16.38;;;11.70;99.90;;;;;;5034075;28;20221;-75
2023/04/01 06:55:42;;;;;;;21.13;17.60;;;11.80;99.90;;;;;;5036791;28;20236;-72
2023/04/01 06:59:10;;;;;;;23.08;17.98;;;11.80;99.90;;;;;;5028674;28;20222;-72
2023/04/01 07:02:04;;;;;;;21.50;17.88;;;11.90;99.90;;;;;;5018990;28;20233;-75
2023/04/01 07:04:56;;;;;;;22.40;18.75;;;12.00;99.90;;;;;;5036965;28;20222;-73
2023/04/01 07:07:49;;;;;;;25.70;17.80;;;12.10;99.90;;;;;;5032283;28;20263;-72
2023/04/01 07:10:46;;;;;;;21.55;17.10;;;12.30;99.90;;;;;;5006142;28;20225;-74
2023/04/01 07:13:56;;;;;;;22.35;17.85;;;12.40;99.90;;;;;;5013917;28;20416;-77
2023/04/01 07:16:50;;;;;;;21.38;17.30;;;12.50;99.90;;;;;;5017211;28;20240;-74
2023/04/01 07:19:45;;;;;;;20.63;17.08;;;12.40;99.90;;;;;;5017101;28;20868;-73
2023/04/01 07:22:37;;;;;;;22.52;17.85;;;12.40;99.90;;;;;;5008370;28;20229;-72
2023/04/01 07:25:40;;;;;;;21.15;18.30;;;12.30;99.90;;;;;;5029432;28;20216;-72
2023/04/01 07:28:53;;;;;;;26.17;21.52;;;12.20;99.90;;;;;;5009141;28;20959;-72
2023/04/01 07:32:30;;;;;;;23.33;20.73;;;12.20;99.90;;;;;;5004665;28;20308;-75
2023/04/01 07:35:28;;;;;;;25.58;22.42;;;12.10;99.90;;;;;;5003954;28;20226;-74
2023/04/01 07:38:27;;;;;;;28.95;23.02;;;12.10;99.90;;;;;;5020186;28;20225;-75
2023/04/01 07:41:25;;;;;;;31.33;24.50;;;12.00;99.90;;;;;;5010601;28;20229;-70
2023/04/01 07:44:19;;;;;;;29.27;24.38;;;12.20;99.90;;;;;;5025704;28;20264;-71
2023/04/01 07:47:34;;;;;;;28.25;22.90;;;12.30;99.90;;;;;;5011834;28;20231;-71
2023/04/01 07:50:28;;;;;;;26.73;22.83;;;12.40;99.90;;;;;;5037520;28;20232;-70
2023/04/01 07:53:24;;;;;;;25.23;22.42;;;12.60;99.90;;;;;;5031603;28;20228;-72
2023/04/01 07:56:20;;;;;;;30.33;22.27;;;12.60;99.90;;;;;;5029218;28;20229;-71
2023/04/01 07:59:19;;;;;;;22.00;19.60;;;12.50;99.90;;;;;;5030159;28;20225;-76
2023/04/01 08:02:34;;;;;;;22.85;19.17;;;12.60;99.90;;;;;;5031189;28;20221;-71
2023/04/01 08:05:29;;;;;;;28.73;22.35;;;12.60;99.90;;;;;;5013862;28;20311;-71
2023/04/01 08:08:30;;;;;;;26.10;20.20;;;12.70;99.90;;;;;;5010591;28;20233;-73
2023/04/01 08:11:39;;;;;;;24.52;21.70;;;12.80;99.90;;;;;;5040398;28;20220;-71
2023/04/01 08:14:59;;;;;;;23.17;19.92;;;13.00;99.90;;;;;;5024378;28;20539;-71
2023/04/01 08:18:24;;;;;;;28.52;21.30;;;12.90;99.90;;;;;;5026813;28;20237;-71
2023/04/01 08:21:23;;;;;;;21.02;18.30;;;12.90;99.90;;;;;;5033214;28;20220;-70
2023/04/01 08:24:21;;;;;;;19.42;16.98;;;13.20;99.90;;;;;;5018408;28;20228;-71
2023/04/01 08:27:20;;;;;;;19.48;17.08;;;13.20;99.90;;;;;;5017263;28;20236;-72
2023/04/01 08:30:19;;;;;;;15.25;13.52;;;13.30;99.90;;;;;;5011562;28;20625;-71
2023/04/01 08:33:16;;;;;;;16.15;14.07;;;13.30;99.90;;;;;;5026542;28;20230;-72
2023/04/01 08:36:11;;;;;;;18.38;14.88;;;13.20;99.90;;;;;;5010731;28;20441;-69
2023/04/01 08:39:09;;;;;;;15.52;13.93;;;13.00;99.90;;;;;;5009391;28;20233;-69
2023/04/01 08:42:21;;;;;;;17.30;15.38;;;12.90;99.90;;;;;;5020693;28;20378;-70
2023/04/01 08:45:42;;;;;;;21.85;15.77;;;13.10;99.90;;;;;;5008496;28;20240;-70
2023/04/01 08:49:02;;;;;;;17.63;14.35;;;13.00;99.90;;;;;;5021980;28;20950;-69
2023/04/01 08:52:19;;;;;;;17.35;14.02;;;13.00;99.90;;;;;;5016156;28;20218;-70
2023/04/01 08:55:32;;;;;;;15.30;13.70;;;13.00;99.90;;;;;;5014699;28;20225;-70
2023/04/01 08:58:51;;;;;;;15.65;13.93;;;12.90;99.90;;;;;;5008570;28;20308;-72
2023/04/01 09:02:10;;;;;;;16.25;14.55;;;12.90;99.90;;;;;;5030059;28;20309;-70
2023/04/01 09:05:30;;;;;;;15.45;12.52;;;12.90;99.90;;;;;;5030739;28;20403;-70
2023/04/01 09:08:34;;;;;;;11.70;10.43;;;12.90;99.90;;;;;;5020744;28;20705;-69
2023/04/01 09:11:44;;;;;;;10.82;8.70;;;13.30;99.90;;;;;;5010324;28;20309;-67
2023/04/01 09:15:14;;;;;;;9.80;8.80;;;13.30;99.90;;;;;;5014497;28;20669;-68
2023/04/01 09:18:46;;;;;;;9.98;7.70;;;13.30;99.90;;;;;;5004707;28;20242;-68
2023/04/01 09:22:00;;;;;;;10.30;7.82;;;13.00;99.90;;;;;;5034313;28;20324;-69
2023/04/01 09:25:40;;;;;;;9.70;8.20;;;13.00;99.90;;;;;;5043314;28;20213;-69
2023/04/01 09:28:42;;;;;;;10.70;9.43;;;12.90;99.90;;;;;;4965464;28;20216;-68
2023/04/01 09:31:48;;;;;;;11.82;9.30;;;12.90;99.90;;;;;;5022332;28;20373;-69
2023/04/01 09:34:56;;;;;;;11.68;9.65;;;12.90;99.90;;;;;;5027801;28;20278;-69
2023/04/01 09:38:12;;;;;;;13.35;10.70;;;13.00;99.90;;;;;;5030394;28;20697;-69
2023/04/01 09:41:12;;;;;;;15.35;11.32;;;12.90;99.90;;;;;;5044344;28;20229;-68
2023/04/01 09:44:35;;;;;;;10.70;8.95;;;12.70;99.90;;;;;;5014987;28;20237;-69
2023/04/01 09:47:49;;;;;;;4.38;3.97;;;12.60;99.90;;;;;;5048837;28;20220;-67
2023/04/01 09:50:49;;;;;;;5.60;4.28;;;12.40;99.90;;;;;;5034835;28;20652;-69
2023/04/01 09:54:01;;;;;;;23.92;11.50;;;12.40;99.90;;;;;;5018272;28;20224;-69
2023/04/01 09:57:37;;;;;;;5.53;4.22;;;12.50;99.90;;;;;;5020498;28;20232;-69
2023/04/01 10:00:56;;;;;;;5.35;4.35;;;12.60;99.90;;;;;;5030300;28;20248;-68
2023/04/01 10:04:26;;;;;;;6.35;4.95;;;12.50;99.90;;;;;;5039733;28;20216;-68
2023/04/01 10:07:56;;;;;;;10.88;5.78;;;12.60;99.90;;;;;;5019799;28;20641;-69
2023/04/01 10:11:16;;;;;;;7.57;6.40;;;12.70;99.90;;;;;;5038765;28;20267;-68
2023/04/01 10:14:35;;;;;;;7.55;5.75;;;12.70;99.90;;;;;;5010404;28;20240;-70
2023/04/01 10:17:50;;;;;;;6.45;5.80;;;12.80;99.90;;;;;;5036731;28;20506;-69
2023/04/01 10:21:17;;;;;;;6.60;5.68;;;12.70;99.90;;;;;;5027959;28;20316;-69
2023/04/01 10:24:45;;;;;;;6.60;5.90;;;12.70;99.90;;;;;;4975176;28;20230;-70
2023/04/01 10:28:00;;;;;;;7.55;5.68;;;12.70;99.90;;;;;;5006809;28;20226;-68
2023/04/01 10:32:03;;;;;;;6.30;4.93;;;12.70;99.90;;;;;;4991032;28;20751;-68
2023/04/01 10:35:24;;;;;;;5.10;4.60;;;12.80;99.90;;;;;;5013335;28;20404;-69
2023/04/01 10:38:46;;;;;;;6.38;5.18;;;12.90;99.90;;;;;;5012454;28;20383;-70
2023/04/01 10:42:11;;;;;;;6.70;5.40;;;13.10;99.90;;;;;;4992121;28;20281;-69
2023/04/01 10:46:11;;;;;;;7.03;5.22;;;13.10;99.90;;;;;;4982203;28;20285;-68
2023/04/01 10:49:47;;;;;;;8.02;6.05;;;13.10;99.90;;;;;;5008082;28;20249;-71
2023/04/01 10:53:20;;;;;;;7.65;5.13;;;13.00;99.90;;;;;;5005384;28;20225;-68
2023/04/01 10:56:55;;;;;;;6.07;5.25;;;12.90;99.90;;;;;;4891695;29;20230;-70
2023/04/01 11:00:57;;;;;;;5.20;4.70;;;12.90;99.90;;;;;;4903995;29;20218;-71
2023/04/01 11:04:44;;;;;;;5.25;4.55;;;12.90;99.90;;;;;;4984464;28;20222;-71
2023/04/01 11:08:20;;;;;;;6.00;4.57;;;12.90;99.90;;;;;;4996429;28;20757;-70
2023/04/01 11:11:55;;;;;;;5.63;5.10;;;12.80;99.90;;;;;;4993162;28;20294;-69
2023/04/01 11:15:36;;;;;;;6.15;4.30;;;12.50;99.90;;;;;;5003250;28;20365;-68
2023/04/01 11:19:06;;;;;;;4.75;4.25;;;12.40;99.90;;;;;;4954030;28;21654;-68
2023/04/01 11:22:25;;;;;;;4.55;3.97;;;12.50;99.90;;;;;;4958477;28;20262;-69
2023/04/01 11:25:48;;;;;;;5.53;4.50;;;13.00;99.90;;;;;;4998019;28;20248;-68
2023/04/01 11:29:39;;;;;;;4.20;3.80;;;13.10;99.90;;;;;;4994601;28;20247;-70
2023/04/01 11:32:58;;;;;;;5.13;4.20;;;13.00;99.90;;;;;;4981696;28;20570;-76
2023/04/01 11:36:12;;;;;;;6.22;4.35;;;13.20;99.90;;;;;;4995530;28;20297;-69
2023/04/01 11:39:21;;;;;;;5.60;4.90;;;13.50;99.90;;;;;;5019234;28;20252;-69
2023/04/01 11:42:41;;;;;;;6.03;5.20;;;13.40;99.90;;;;;;4997132;28;20233;-69
2023/04/01 11:45:56;;;;;;;6.07;5.47;;;13.40;99.90;;;;;;5001791;28;20234;-68
2023/04/01 11:48:57;;;;;;;6.60;5.88;;;13.50;99.90;;;;;;4992901;28;20226;-71
2023/04/01 11:52:05;;;;;;;6.95;6.25;;;13.50;99.90;;;;;;5005235;28;20254;-70
2023/04/01 11:55:19;;;;;;;7.00;6.30;;;13.30;99.90;;;;;;4999774;28;20332;-71
2023/04/01 11:58:43;;;;;;;8.05;7.10;;;13.30;99.90;;;;;;4994697;28;21224;-70
2023/04/01 12:01:44;;;;;;;10.70;7.25;;;13.30;99.90;;;;;;5019348;28;20234;-68
2023/04/01 12:05:09;;;;;;;8.45;7.38;;;13.20;99.90;;;;;;4990520;28;20234;-70
2023/04/01 12:08:11;;;;;;;9.52;7.57;;;13.30;99.90;;;;;;5000474;28;20375;-70
2023/04/01 12:11:09;;;;;;;6.70;5.35;;;13.40;99.90;;;;;;5023011;28;21098;-71
2023/04/01 12:14:06;;;;;;;7.32;5.43;;;13.50;99.90;;;;;;5009989;28;20243;-69
2023/04/01 12:17:04;;;;;;;5.88;4.63;;;13.70;99.90;;;;;;5013124;28;20614;-70
2023/04/01 12:19:59;;;;;;;3.78;3.30;;;13.80;99.90;;;;;;5008721;28;20221;-71
2023/04/01 12:23:00;;;;;;;3.13;2.83;;;13.80;99.90;;;;;;5019045;28;20738;-70
2023/04/01 12:26:18;;;;;;;3.70;3.00;;;13.80;99.90;;;;;;5027878;28;20220;-71
2023/04/01 12:29:29;;;;;;;2.72;2.17;;;14.00;99.90;;;;;;5013045;28;20228;-70
2023/04/01 12:32:31;;;;;;;4.28;1.90;;;14.00;99.90;;;;;;5031240;28;20254;-70
2023/04/01 12:35:24;;;;;;;4.15;2.85;;;14.20;99.90;;;;;;5014779;28;20263;-69
2023/04/01 12:38:24;;;;;;;2.78;2.30;;;14.30;99.90;;;;;;5018423;28;20994;-72
2023/04/01 12:41:25;;;;;;;3.38;2.30;;;14.30;99.90;;;;;;5017521;28;20228;-71
2023/04/01 12:44:35;;;;;;;2.95;2.63;;;14.50;99.90;;;;;;5040126;28;20231;-70
2023/04/01 12:47:45;;;;;;;3.47;2.90;;;14.70;99.90;;;;;;5024528;28;20402;-70
2023/04/01 12:50:49;;;;;;;5.10;3.88;;;14.80;99.90;;;;;;5037052;28;20244;-72
2023/04/01 12:53:50;;;;;;;4.68;4.05;;;15.10;99.90;;;;;;5039079;28;20227;-70
2023/04/01 12:56:55;;;;;;;4.70;3.97;;;15.20;99.90;;;;;;5024004;28;20387;-71
2023/04/01 13:00:04;;;;;;;5.00;3.55;;;15.40;99.90;;;;;;5022583;28;20229;-71
2023/04/01 13:03:11;;;;;;;5.38;4.50;;;15.20;99.90;;;;;;5018003;28;20243;-71
2023/04/01 13:06:33;;;;;;;4.60;4.10;;;15.10;99.90;;;;;;5003388;28;20804;-72
2023/04/01 13:09:33;;;;;;;5.50;4.10;;;14.80;99.90;;;;;;5025229;28;20625;-70
2023/04/01 13:12:38;;;;;;;5.00;3.80;;;14.70;99.90;;;;;;5020801;28;20487;-70
2023/04/01 13:15:33;;;;;;;4.43;3.95;;;14.60;99.90;;;;;;5033855;28;20236;-70
2023/04/01 13:18:30;;;;;;;4.72;4.25;;;14.50;99.90;;;;;;5015172;28;20389;-70
2023/04/01 13:21:28;;;;;;;4.60;3.88;;;14.30;99.90;;;;;;5020727;28;20237;-71
2023/04/01 13:24:32;;;;;;;4.65;4.15;;;14.20;99.90;;;;;;5028024;28;20305;-71
2023/04/01 13:27:31;;;;;;;4.78;4.10;;;14.00;99.90;;;;;;5018191;28;20515;-72
2023/04/01 13:30:28;;;;;;;5.05;4.13;;;14.00;99.90;;;;;;5033565;28;20224;-70
2023/04/01 13:33:28;;;;;;;4.75;4.25;;;14.00;99.90;;;;;;5025309;28;20245;-70
2023/04/01 13:36:32;;;;;;;5.53;4.65;;;14.00;99.90;;;;;;5023649;28;20744;-71
2023/04/01 13:39:36;;;;;;;4.80;3.58;;;13.90;99.90;;;;;;5034787;28;20245;-70
2023/04/01 13:42:39;;;;;;;4.20;2.92;;;13.70;99.90;;;;;;5010819;28;20326;-70
2023/04/01 13:45:37;;;;;;;3.00;2.63;;;13.60;99.90;;;;;;5028708;28;20221;-71
2023/04/01 13:48:43;;;;;;;3.25;2.75;;;13.60;99.90;;;;;;5026467;28;20320;-71
2023/04/01 13:52:07;;;;;;;4.13;3.20;;;13.40;99.90;;;;;;5020131;28;20445;-70
2023/04/01 13:55:28;;;;;;;4.32;3.22;;;13.40;99.90;;;;;;5035383;28;20324;-72
2023/04/01 13:58:51;;;;;;;4.80;3.05;;;13.20;99.90;;;;;;5022922;28;20451;-70
2023/04/01 14:01:43;;;;;;;4.55;2.80;;;13.20;99.90;;;;;;5001558;28;20303;-71
2023/04/01 14:04:57;;;;;;;5.32;3.35;;;13.10;99.90;;;;;;5031281;28;20239;-71
2023/04/01 14:08:01;;;;;;;3.50;2.60;;;13.20;99.90;;;;;;5015055;28;20674;-69
2023/04/01 14:11:00;;;;;;;3.40;2.85;;;13.20;99.90;;;;;;5029267;28;20249;-70
2023/04/01 14:14:01;;;;;;;3.97;3.22;;;13.10;99.90;;;;;;5026628;28;20244;-70
2023/04/01 14:17:25;;;;;;;3.65;2.70;;;13.30;99.90;;;;;;5033501;28;20216;-71
2023/04/01 14:20:41;;;;;;;3.40;3.10;;;13.40;99.90;;;;;;5031613;28;20262;-70
2023/04/01 14:23:50;;;;;;;4.03;2.95;;;13.20;99.90;;;;;;5032402;28;20225;-70
2023/04/01 14:27:02;;;;;;;3.67;3.20;;;13.20;99.90;;;;;;5022243;28;20298;-69
2023/04/01 14:30:07;;;;;;;5.18;4.68;;;13.10;99.90;;;;;;4998439;28;20221;-70
2023/04/01 14:33:03;;;;;;;7.75;5.05;;;12.50;99.90;;;;;;5028093;28;20214;-71
2023/04/01 14:36:05;;;;;;;5.60;3.58;;;12.60;99.90;;;;;;5015163;28;20229;-70
2023/04/01 14:39:06;;;;;;;3.17;2.78;;;12.30;99.90;;;;;;5020241;28;20224;-70
2023/04/01 14:42:12;;;;;;;2.95;2.60;;;12.30;99.90;;;;;;5021007;28;20226;-67
2023/04/01 14:45:34;;;;;;;2.50;2.10;;;12.30;99.90;;;;;;5036188;28;20907;-71
2023/04/01 14:48:28;;;;;;;2.85;1.70;;;12.40;99.90;;;;;;5030316;28;20382;-69
2023/04/01 14:51:21;;;;;;;2.58;1.95;;;12.10;99.90;;;;;;5028528;28;20341;-67
2023/04/01 14:54:22;;;;;;;2.88;2.25;;;12.10;99.90;;;;;;5009085;28;20239;-68
2023/04/01 14:57:14;;;;;;;2.60;2.38;;;12.30;99.90;;;;;;4998625;28;20256;-68
2023/04/01 15:00:15;;;;;;;4.45;3.10;;;12.30;99.90;;;;;;5034072;28;20789;-70
2023/04/01 15:03:16;;;;;;;5.93;3.03;;;12.50;99.90;;;;;;5036573;28;20224;-69
2023/04/01 15:06:35;;;;;;;3.03;1.90;;;12.30;99.90;;;;;;5010414;28;20232;-77
2023/04/01 15:09:35;;;;;;;2.30;1.70;;;12.10;99.90;;;;;;4997818;28;20226;-70
2023/04/01 15:12:31;;;;;;;2.58;1.40;;;11.80;99.90;;;;;;5041290;28;20232;-70
2023/04/01 15:15:32;;;;;;;2.47;1.42;;;11.60;99.90;;;;;;5027647;28;20231;-70
2023/04/01 15:18:32;;;;;;;1.90;1.65;;;11.70;99.90;;;;;;5013683;28;20224;-71
2023/04/01 15:21:45;;;;;;;3.47;1.95;;;11.80;99.90;;;;;;5027126;28;20840;-70
2023/04/01 15:24:46;;;;;;;1.98;1.77;;;11.60;99.90;;;;;;5021392;28;20815;-70
2023/04/01 15:27:43;;;;;;;2.50;2.20;;;11.50;99.90;;;;;;5015270;28;20730;-72
2023/04/01 15:30:41;;;;;;;2.70;2.10;;;11.30;99.90;;;;;;5021705;28;20220;-70
2023/04/01 15:33:45;;;;;;;3.17;2.50;;;11.20;99.90;;;;;;5033798;28;20225;-71